Konpira2 — JJ3664 — position and weather

sailwx.info

Track history (hours):
 
Tides and Currents Weather Stations Pressure Air Temp Water Temp Dewpoint Dewpoint Depression Visibility Wind Speed Wind Dir Waves Ship Positions

Konpira2

Last reported at 2017-Dec-11 17:00 UTC. Time now 2017-Dec-12 22:00 UTC.
Position N 34°37' E 135°01'.

Length 108 m; draft 4.5 m.

Type: Ship. MMSI: 431000457.

Date/timePositionNaut miles runAvg speedWind from/ knotsBaromVisibWave heightAir tempDewpointWater temp
2017-Dec-11 17:00N 34°37' E 135°01'713.4
2017-Dec-11 16:30N 34°37' E 135°09'4 8.7
2017-Dec-11 16:00N 34°41' E 135°12'0 0.0
2017-Dec-11 15:30N 34°41' E 135°12'0 0.0
2017-Dec-11 15:00N 34°41' E 135°12'3 6.1
2017-Dec-11 14:30N 34°38' E 135°11'815.1
2017-Dec-11 14:00N 34°36' E 135°02'918.0
2017-Dec-11 13:30N 34°34' E 134°52'918.3
2017-Dec-11 13:00N 34°30' E 134°41'917.7
2017-Dec-11 12:30N 34°27' E 134°31'816.8
2017-Dec-11 12:00N 34°26' E 134°21'2 3.4
2017-Dec-11 11:20N 34°26' E 134°18'617.0
2017-Dec-11 10:59N 34°25' E 134°12'7 3.9
2017-Dec-11 09:14N 34°21' E 134°04'2 8.0
2017-Dec-11 09:00N 34°23' E 134°05'713.0
2017-Dec-11 08:27N 34°24' E 134°14'6 6.2
2017-Dec-11 07:31N 34°25' E 134°21'014.7
2017-Dec-11 07:30N 34°26' E 134°21'816.8
2017-Dec-11 07:00N 34°29' E 134°30'816.8
2017-Dec-11 06:30N 34°31' E 134°40'917.4
2017-Dec-11 06:01N 34°34' E 134°50'918.5
2017-Dec-11 05:30N 34°38' E 135°00'815.4
2017-Dec-11 05:00N 34°37' E 135°09'4 8.7
2017-Dec-11 04:30N 34°41' E 135°12'0 0.0
2017-Dec-11 04:00N 34°41' E 135°12'0 0.0
2017-Dec-11 03:30N 34°41' E 135°12'0 0.0
2017-Dec-11 03:00N 34°41' E 135°12'0 0.0
2017-Dec-11 02:30N 34°41' E 135°12'0 0.0
2017-Dec-11 02:01N 34°41' E 135°12'0 0.0
2017-Dec-11 01:31N 34°41' E 135°12'612.7
2017-Dec-11 01:00N 34°36' E 135°07'816.9
2017-Dec-11 00:30N 34°36' E 134°57'1019.2
2017-Dec-11 00:01N 34°32' E 134°47'918.4
2017-Dec-10 23:30N 34°29' E 134°36'918.2
2017-Dec-10 23:00N 34°26' E 134°26'6 6.9
2017-Dec-10 22:09N 34°27' E 134°19'216.6
2017-Dec-10 22:00N 34°25' E 134°16'917.1
2017-Dec-10 21:27N 34°23' E 134°05'2 1.2
2017-Dec-10 19:51N 34°21' E 134°04'411.3
2017-Dec-10 19:30N 34°24' E 134°07'816.5
2017-Dec-10 19:00N 34°25' E 134°17'917.5
2017-Dec-10 18:30N 34°27' E 134°27'917.8
2017-Dec-10 18:00N 34°30' E 134°38'918.0
2017-Dec-10 17:30N 34°33' E 134°48'918.9
2017-Dec-10 17:00N 34°37' E 134°58'816.5
2017-Dec-10 16:31N 34°37' E 135°08'510.4
2017-Dec-10 16:00N 34°41' E 135°12'0 0.0
2017-Dec-10 15:31N 34°41' E 135°12'0 0.0
2017-Dec-10 15:01N 34°41' E 135°12'0 0.0
2017-Dec-10 14:30N 34°41' E 135°12'0 0.0
2017-Dec-10 14:01N 34°41' E 135°12'0 0.0
2017-Dec-10 13:30N 34°41' E 135°12'0 0.0
2017-Dec-10 13:00N 34°41' E 135°12'0 0.0
2017-Dec-10 12:31N 34°41' E 135°12'0 0.0
2017-Dec-10 12:01N 34°41' E 135°12'3 5.4
2017-Dec-10 11:31N 34°38' E 135°11'815.5
2017-Dec-10 11:01N 34°36' E 135°02'918.3
2017-Dec-10 10:31N 34°34' E 134°51'918.3
2017-Dec-10 10:01N 34°30' E 134°41'918.2
2017-Dec-10 09:30N 34°27' E 134°31'817.0
2017-Dec-10 09:00N 34°26' E 134°21'2 3.1
2017-Dec-10 08:25N 34°27' E 134°19'716.8
2017-Dec-10 07:59N 34°24' E 134°11'6 4.7
2017-Dec-10 06:43N 34°21' E 134°04'311.2
2017-Dec-10 06:29N 34°24' E 134°06'816.8
2017-Dec-10 06:00N 34°25' E 134°15'4 4.4
2017-Dec-10 05:02N 34°25' E 134°20'016.8
2017-Dec-10 05:00N 34°25' E 134°21'918.3
2017-Dec-10 04:31N 34°28' E 134°32'918.3
2017-Dec-10 04:01N 34°32' E 134°42'1019.7
2017-Dec-10 03:30N 34°35' E 134°53'918.8
2017-Dec-10 03:00N 34°36' E 135°04'714.4
2017-Dec-10 02:31N 34°40' E 135°12'1 1.6
2017-Dec-10 02:00N 34°41' E 135°12'0 0.0
2017-Dec-10 01:31N 34°41' E 135°12'611.1
2017-Dec-10 01:01N 34°36' E 135°08'815.7
2017-Dec-10 00:30N 34°37' E 134°59'918.4
2017-Dec-10 00:00N 34°33' E 134°49'918.0
2017-Dec-09 23:30N 34°29' E 134°39'918.0
2017-Dec-09 23:00N 34°26' E 134°28'815.2
2017-Dec-09 22:30N 34°26' E 134°19'1 1.4
2017-Dec-09 22:00N 34°27' E 134°19'916.9
2017-Dec-09 21:29N 34°24' E 134°09'5 3.0
2017-Dec-09 19:57N 34°21' E 134°04'5 9.9
2017-Dec-09 19:29N 34°24' E 134°09'816.5
2017-Dec-09 19:00N 34°25' E 134°18'817.3
2017-Dec-09 18:30N 34°27' E 134°28'917.6
2017-Dec-09 18:00N 34°31' E 134°38'917.8
2017-Dec-09 17:30N 34°34' E 134°48'918.5
2017-Dec-09 17:01N 34°37' E 134°58'816.5
2017-Dec-09 16:31N 34°37' E 135°08'510.2
2017-Dec-09 16:00N 34°41' E 135°12'0 0.0
2017-Dec-09 15:30N 34°41' E 135°12'0 0.0
2017-Dec-09 15:00N 34°41' E 135°12'0 0.0
2017-Dec-09 14:30N 34°41' E 135°12'0 0.0
2017-Dec-09 14:00N 34°41' E 135°12'0 0.0
2017-Dec-09 13:30N 34°41' E 135°12'0 0.0
2017-Dec-09 13:00N 34°41' E 135°12'0 0.0
2017-Dec-09 12:30N 34°41' E 135°12'0 0.0
2017-Dec-09 12:00N 34°41' E 135°12'2 4.2
2017-Dec-09 11:30N 34°39' E 135°11'815.2
2017-Dec-09 11:00N 34°36' E 135°03'918.4
2017-Dec-09 10:30N 34°34' E 134°52'918.6
2017-Dec-09 10:00N 34°31' E 134°41'918.3
2017-Dec-09 09:30N 34°27' E 134°31'917.4
2017-Dec-09 09:00N 34°25' E 134°21'2 3.4
2017-Dec-09 08:25N 34°27' E 134°19'717.4
2017-Dec-09 08:00N 34°24' E 134°10'5 4.3
2017-Dec-09 06:44N 34°22' E 134°04'413.9
2017-Dec-09 06:28N 34°24' E 134°08'715.3
2017-Dec-09 06:01N 34°26' E 134°17'3 3.6
2017-Dec-09 05:18N 34°26' E 134°20'517.0
2017-Dec-09 05:00N 34°26' E 134°26'917.8
2017-Dec-09 04:30N 34°30' E 134°36'918.1
2017-Dec-09 04:00N 34°33' E 134°46'1019.9
2017-Dec-09 03:30N 34°37' E 134°57'917.3
2017-Dec-09 03:00N 34°37' E 135°08'510.8
2017-Dec-09 02:30N 34°41' E 135°12'0 0.1
2017-Dec-09 02:00N 34°41' E 135°12'0 0.2
2017-Dec-09 01:30N 34°41' E 135°12'713.6
2017-Dec-09 01:00N 34°36' E 135°07'714.9
2017-Dec-09 00:30N 34°36' E 134°58'917.8
2017-Dec-09 00:00N 34°32' E 134°48'918.1
2017-Dec-08 23:30N 34°29' E 134°38'918.1
2017-Dec-08 23:00N 34°27' E 134°27'7 7.4
2017-Dec-08 22:05N 34°27' E 134°19'113.9
2017-Dec-08 22:00N 34°26' E 134°18'916.4
2017-Dec-08 21:28N 34°24' E 134°07'4 2.7
2017-Dec-08 20:08N 34°21' E 134°04'1 7.3
2017-Dec-08 20:00N 34°22' E 134°04'1014.6
2017-Dec-08 19:19N 34°24' E 134°17'516.7
2017-Dec-08 19:00N 34°26' E 134°23'817.4
2017-Dec-08 18:31N 34°29' E 134°32'917.3
2017-Dec-08 18:00N 34°32' E 134°42'917.8
2017-Dec-08 17:30N 34°35' E 134°52'816.9
2017-Dec-08 17:00N 34°37' E 135°02'714.4
2017-Dec-08 16:30N 34°38' E 135°11'3 5.9
2017-Dec-08 16:01N 34°41' E 135°12'0 0.0
2017-Dec-08 15:30N 34°41' E 135°12'0 0.1
2017-Dec-08 15:01N 34°41' E 135°12'612.5
2017-Dec-08 14:31N 34°36' E 135°08'815.0
2017-Dec-08 14:01N 34°37' E 134°59'816.6
2017-Dec-08 13:31N 34°33' E 134°50'816.9
2017-Dec-08 13:00N 34°30' E 134°40'917.1
2017-Dec-08 12:30N 34°27' E 134°30'816.0
2017-Dec-08 12:00N 34°26' E 134°21'2 3.3
2017-Dec-08 11:23N 34°26' E 134°18'716.2
2017-Dec-08 10:59N 34°24' E 134°11'6 3.6
2017-Dec-08 09:17N 34°21' E 134°04'310.2
2017-Dec-08 09:01N 34°24' E 134°06'814.4
2017-Dec-08 08:28N 34°25' E 134°15'4 4.9
2017-Dec-08 07:35N 34°26' E 134°21'116.0
2017-Dec-08 07:30N 34°26' E 134°22'816.6
2017-Dec-08 07:01N 34°29' E 134°31'816.4
2017-Dec-08 06:31N 34°32' E 134°41'917.2
2017-Dec-08 06:01N 34°35' E 134°50'917.3
2017-Dec-08 05:31N 34°38' E 135°00'714.5
2017-Dec-08 05:01N 34°38' E 135°09'4 7.9
2017-Dec-08 04:30N 34°41' E 135°12'0 0.0
2017-Dec-08 04:00N 34°41' E 135°12'0 0.0
2017-Dec-08 03:30N 34°41' E 135°12'0 0.0
2017-Dec-08 03:00N 34°41' E 135°12'0 0.0
2017-Dec-08 02:30N 34°41' E 135°12'2 4.2
2017-Dec-08 02:00N 34°39' E 135°11'612.8
2017-Dec-08 01:31N 34°35' E 135°05'713.0
2017-Dec-08 01:00N 34°36' E 134°58'815.5
2017-Dec-08 00:31N 34°33' E 134°49'917.3
2017-Dec-08 00:01N 34°30' E 134°39'917.8
2017-Dec-07 23:30N 34°27' E 134°29'815.9
2017-Dec-07 23:00N 34°26' E 134°19'1 1.7
2017-Dec-07 22:27N 34°26' E 134°18'1016.2
2017-Dec-07 21:49N 34°24' E 134°06'3 2.4
2017-Dec-07 20:34N 34°21' E 134°04'0 1.9
2017-Dec-07 20:30N 34°21' E 134°04'912.6
2017-Dec-07 19:50N 34°24' E 134°14'616.2
2017-Dec-07 19:26N 34°25' E 134°22'716.9
2017-Dec-07 19:00N 34°28' E 134°30'816.9
2017-Dec-07 18:30N 34°31' E 134°39'816.7
2017-Dec-07 18:00N 34°34' E 134°49'816.0
2017-Dec-07 17:30N 34°37' E 134°58'714.9
2017-Dec-07 17:00N 34°36' E 135°07'612.6
2017-Dec-07 16:30N 34°41' E 135°12'0 0.5
2017-Dec-07 16:00N 34°41' E 135°12'0 0.0
2017-Dec-07 15:30N 34°41' E 135°12'0 0.1
2017-Dec-07 15:00N 34°41' E 135°12'613.0
2017-Dec-07 14:30N 34°36' E 135°07'612.2
2017-Dec-07 14:00N 34°37' E 134°60'815.4
2017-Dec-07 13:30N 34°34' E 134°51'816.9
2017-Dec-07 13:00N 34°30' E 134°42'917.5
2017-Dec-07 12:30N 34°27' E 134°32'816.9
2017-Dec-07 12:00N 34°25' E 134°22'3 4.7
2017-Dec-07 11:18N 34°27' E 134°19'516.0
2017-Dec-07 11:00N 34°24' E 134°14'8 4.4
2017-Dec-07 09:04N 34°21' E 134°04'2 9.0
2017-Dec-07 08:51N 34°23' E 134°05'715.7
2017-Dec-07 08:26N 34°24' E 134°13'6 6.4
2017-Dec-07 07:30N 34°26' E 134°20'816.7
2017-Dec-07 07:00N 34°28' E 134°30'917.3
2017-Dec-07 06:30N 34°31' E 134°39'917.6
2017-Dec-07 06:01N 34°34' E 134°49'917.1
2017-Dec-07 05:30N 34°38' E 134°59'815.5
2017-Dec-07 05:00N 34°37' E 135°09'5 9.5
2017-Dec-07 04:30N 34°41' E 135°12'0 0.0
2017-Dec-07 04:00N 34°41' E 135°12'0 0.0
2017-Dec-07 03:31N 34°41' E 135°12'0 0.0
2017-Dec-07 03:00N 34°41' E 135°12'0 0.0
2017-Dec-07 02:30N 34°41' E 135°12'4 7.2
2017-Dec-07 02:00N 34°38' E 135°10'713.7
2017-Dec-07 01:30N 34°36' E 135°02'713.2
2017-Dec-07 01:00N 34°36' E 134°54'714.7
2017-Dec-07 00:31N 34°32' E 134°46'816.5
2017-Dec-07 00:00N 34°29' E 134°37'817.0
2017-Dec-06 23:30N 34°26' E 134°27'7 7.6
2017-Dec-06 22:34N 34°27' E 134°19'111.9
2017-Dec-06 22:30N 34°26' E 134°18'815.8
2017-Dec-06 21:59N 34°24' E 134°08'  
2017-Dec-04 09:05N 34°21' E 134°04'1 6.4
2017-Dec-04 08:56N 34°22' E 134°04'916.4
2017-Dec-04 08:22N 34°25' E 134°15'5 6.6
2017-Dec-04 07:34N 34°26' E 134°21'117.0
2017-Dec-04 07:30N 34°26' E 134°23'917.6
2017-Dec-04 07:00N 34°29' E 134°33'917.4
2017-Dec-04 06:30N 34°32' E 134°42'816.8
2017-Dec-04 06:00N 34°35' E 134°52'715.0
2017-Dec-04 05:30N 34°37' E 135°01'713.1
2017-Dec-04 05:01N 34°37' E 135°08'510.3
2017-Dec-04 04:30N 34°41' E 135°12'0 0.0
2017-Dec-04 04:00N 34°41' E 135°12'0 0.0
2017-Dec-04 03:30N 34°41' E 135°12'0 0.0
2017-Dec-04 03:00N 34°41' E 135°12'0 0.0
2017-Dec-04 02:30N 34°41' E 135°12'0 0.0
2017-Dec-04 02:00N 34°41' E 135°12'611.6
2017-Dec-04 01:30N 34°36' E 135°08'714.7
2017-Dec-04 01:00N 34°37' E 134°60'816.1
2017-Dec-04 00:30N 34°34' E 134°51'815.8
2017-Dec-04 00:00N 34°30' E 134°42'917.3
2017-Dec-03 23:30N 34°27' E 134°32'816.7
2017-Dec-03 23:01N 34°25' E 134°23'3 5.6
2017-Dec-03 22:25N 34°27' E 134°19'513.0
2017-Dec-03 22:00N 34°25' E 134°13'713.7
2017-Dec-03 21:28N 34°23' E 134°05'2 1.3
2017-Dec-03 20:07N 34°21' E 134°04'0 3.0
2017-Dec-03 19:59N 34°22' E 134°04'815.5
2017-Dec-03 19:30N 34°24' E 134°13'917.3
2017-Dec-03 19:00N 34°26' E 134°23'917.9
2017-Dec-03 18:30N 34°29' E 134°33'917.6
2017-Dec-03 18:00N 34°32' E 134°43'816.3
2017-Dec-03 17:30N 34°35' E 134°52'714.5
2017-Dec-03 17:00N 34°37' E 135°01'613.0
2017-Dec-03 16:30N 34°37' E 135°09'5 9.5
2017-Dec-03 16:00N 34°41' E 135°12'0 0.0
2017-Dec-03 15:30N 34°41' E 135°12'0 0.0
2017-Dec-03 15:01N 34°41' E 135°12'0 0.0
2017-Dec-03 14:30N 34°41' E 135°12'0 0.0
2017-Dec-03 14:00N 34°41' E 135°12'0 0.0
2017-Dec-03 13:30N 34°41' E 135°12'0 0.0
2017-Dec-03 13:00N 34°41' E 135°12'0 0.0
2017-Dec-03 12:31N 34°41' E 135°12'3 6.0
2017-Dec-03 12:00N 34°38' E 135°11'714.6
2017-Dec-03 11:30N 34°36' E 135°02'714.9
2017-Dec-03 11:00N 34°35' E 134°53'816.0
2017-Dec-03 10:30N 34°31' E 134°45'917.2
2017-Dec-03 10:00N 34°28' E 134°35'917.5
2017-Dec-03 09:30N 34°26' E 134°25'5 6.1
2017-Dec-03 08:41N 34°27' E 134°19'315.6
2017-Dec-03 08:30N 34°25' E 134°16'815.1
2017-Dec-03 08:00N 34°24' E 134°07'3 3.9
2017-Dec-03 07:08N 34°21' E 134°04'2 9.8
2017-Dec-03 06:58N 34°23' E 134°05'816.0
2017-Dec-03 06:26N 34°25' E 134°15'4 5.5
2017-Dec-03 05:42N 34°26' E 134°20'316.9
2017-Dec-03 05:30N 34°27' E 134°24'917.8
2017-Dec-03 05:00N 34°30' E 134°34'917.6
2017-Dec-03 04:30N 34°33' E 134°44'816.5
2017-Dec-03 04:00N 34°36' E 134°53'713.8
2017-Dec-03 03:30N 34°37' E 135°02'612.8
2017-Dec-03 03:01N 34°38' E 135°09'4 7.9
2017-Dec-03 02:30N 34°41' E 135°12'0 0.0
2017-Dec-03 02:00N 34°41' E 135°12'510.8
2017-Dec-03 01:31N 34°36' E 135°08'714.3
2017-Dec-03 01:01N 34°37' E 134°60'816.5
2017-Dec-03 00:30N 34°34' E 134°51'816.0
2017-Dec-03 00:00N 34°31' E 134°42'917.1
2017-Dec-02 23:30N 34°28' E 134°32'816.2
2017-Dec-02 23:00N 34°25' E 134°23'3 4.7
2017-Dec-02 22:18N 34°27' E 134°19'415.1
2017-Dec-02 22:01N 34°24' E 134°15'714.0
2017-Dec-02 21:30N 34°24' E 134°06'3 1.9
2017-Dec-02 20:05N 34°21' E 134°04'0 1.3
2017-Dec-02 20:00N 34°21' E 134°04'713.7
2017-Dec-02 19:30N 34°24' E 134°12'917.6
2017-Dec-02 19:00N 34°26' E 134°22'918.0
2017-Dec-02 18:30N 34°29' E 134°32'917.7
2017-Dec-02 18:00N 34°32' E 134°42'816.7
2017-Dec-02 17:30N 34°35' E 134°52'815.6
2017-Dec-02 17:00N 34°38' E 135°01'612.7
2017-Dec-02 16:30N 34°37' E 135°09'5 9.6
2017-Dec-02 16:00N 34°41' E 135°12'0 0.0
2017-Dec-02 15:31N 34°41' E 135°12'0 0.0
2017-Dec-02 15:00N 34°41' E 135°12'0 0.0
2017-Dec-02 14:31N 34°41' E 135°12'0 0.0
2017-Dec-02 14:01N 34°41' E 135°12'0 0.0
2017-Dec-02 13:31N 34°41' E 135°12'0 0.0
2017-Dec-02 13:00N 34°41' E 135°12'0 0.0
2017-Dec-02 12:31N 34°41' E 135°12'713.1
2017-Dec-02 12:01N 34°36' E 135°07'714.8
2017-Dec-02 11:31N 34°37' E 134°58'816.2
2017-Dec-02 11:01N 34°33' E 134°49'816.8
2017-Dec-02 10:31N 34°30' E 134°39'917.2
2017-Dec-02 10:01N 34°27' E 134°30'815.9
2017-Dec-02 09:31N 34°26' E 134°20'2 2.9
2017-Dec-02 08:58N 34°27' E 134°19'714.9
2017-Dec-02 08:30N 34°24' E 134°11'6 4.8
2017-Dec-02 07:13N 34°21' E 134°04'3 9.7
2017-Dec-02 06:56N 34°24' E 134°06'817.5
2017-Dec-02 06:30N 34°25' E 134°15'4 5.4
2017-Dec-02 05:45N 34°26' E 134°20'417.0
2017-Dec-02 05:30N 34°27' E 134°25'917.8
2017-Dec-02 05:00N 34°30' E 134°35'917.3
2017-Dec-02 04:31N 34°33' E 134°45'816.3
2017-Dec-02 04:00N 34°36' E 134°54'714.0
2017-Dec-02 03:30N 34°37' E 135°02'713.6
2017-Dec-02 03:00N 34°38' E 135°10'3 6.3
2017-Dec-02 02:31N 34°41' E 135°12'0 0.0
2017-Dec-02 02:01N 34°41' E 135°12'4 8.6
2017-Dec-02 01:30N 34°37' E 135°10'815.1
2017-Dec-02 01:00N 34°37' E 135°00'917.3
2017-Dec-02 00:30N 34°34' E 134°51'816.6
2017-Dec-02 00:00N 34°30' E 134°42'917.4
2017-Dec-01 23:30N 34°27' E 134°32'816.6
2017-Dec-01 23:00N 34°25' E 134°22'3 4.1
2017-Dec-01 22:19N 34°27' E 134°19'515.5
2017-Dec-01 22:00N 34°25' E 134°14'714.0
2017-Dec-01 21:29N 34°23' E 134°05'2 1.4
2017-Dec-01 20:10N 34°21' E 134°04'310.8
2017-Dec-01 19:56N 34°24' E 134°06'818.6
2017-Dec-01 19:30N 34°24' E 134°15'917.6
2017-Dec-01 19:00N 34°27' E 134°25'917.5
2017-Dec-01 18:31N 34°30' E 134°35'917.1
2017-Dec-01 18:01N 34°33' E 134°45'816.6
2017-Dec-01 17:31N 34°36' E 134°54'714.0
2017-Dec-01 17:00N 34°36' E 135°03'  
Track history (hours):
 
Tides and Currents Weather Stations Pressure Air Temp Water Temp Dewpoint Dewpoint Depression Visibility Wind Speed Wind Dir Waves Ship Positions

Konpira2

Last reported at 2017-Dec-11 17:00 UTC. Time now 2017-Dec-12 22:00 UTC.
Position N 34°37' E 135°01'.

Length 108 m; draft 4.5 m.

Type: Ship. MMSI: 431000457.

Date/timePositionNaut miles runAvg speedWind from/ knotsBaromVisibWave heightAir tempDewpointWater temp
2017-Dec-11 17:00N 34°37' E 135°01'713.4
2017-Dec-11 16:30N 34°37' E 135°09'4 8.7
2017-Dec-11 16:00N 34°41' E 135°12'0 0.0
2017-Dec-11 15:30N 34°41' E 135°12'0 0.0
2017-Dec-11 15:00N 34°41' E 135°12'3 6.1
2017-Dec-11 14:30N 34°38' E 135°11'815.1
2017-Dec-11 14:00N 34°36' E 135°02'918.0
2017-Dec-11 13:30N 34°34' E 134°52'918.3
2017-Dec-11 13:00N 34°30' E 134°41'917.7
2017-Dec-11 12:30N 34°27' E 134°31'816.8
2017-Dec-11 12:00N 34°26' E 134°21'2 3.4
2017-Dec-11 11:20N 34°26' E 134°18'617.0
2017-Dec-11 10:59N 34°25' E 134°12'7 3.9
2017-Dec-11 09:14N 34°21' E 134°04'2 8.0
2017-Dec-11 09:00N 34°23' E 134°05'713.0
2017-Dec-11 08:27N 34°24' E 134°14'6 6.2
2017-Dec-11 07:31N 34°25' E 134°21'014.7
2017-Dec-11 07:30N 34°26' E 134°21'816.8
2017-Dec-11 07:00N 34°29' E 134°30'816.8
2017-Dec-11 06:30N 34°31' E 134°40'917.4
2017-Dec-11 06:01N 34°34' E 134°50'918.5
2017-Dec-11 05:30N 34°38' E 135°00'815.4
2017-Dec-11 05:00N 34°37' E 135°09'4 8.7
2017-Dec-11 04:30N 34°41' E 135°12'0 0.0
2017-Dec-11 04:00N 34°41' E 135°12'0 0.0
2017-Dec-11 03:30N 34°41' E 135°12'0 0.0
2017-Dec-11 03:00N 34°41' E 135°12'0 0.0
2017-Dec-11 02:30N 34°41' E 135°12'0 0.0
2017-Dec-11 02:01N 34°41' E 135°12'0 0.0
2017-Dec-11 01:31N 34°41' E 135°12'612.7
2017-Dec-11 01:00N 34°36' E 135°07'816.9
2017-Dec-11 00:30N 34°36' E 134°57'1019.2
2017-Dec-11 00:01N 34°32' E 134°47'918.4
2017-Dec-10 23:30N 34°29' E 134°36'918.2
2017-Dec-10 23:00N 34°26' E 134°26'6 6.9
2017-Dec-10 22:09N 34°27' E 134°19'216.6
2017-Dec-10 22:00N 34°25' E 134°16'917.1
2017-Dec-10 21:27N 34°23' E 134°05'2 1.2
2017-Dec-10 19:51N 34°21' E 134°04'411.3
2017-Dec-10 19:30N 34°24' E 134°07'816.5
2017-Dec-10 19:00N 34°25' E 134°17'917.5
2017-Dec-10 18:30N 34°27' E 134°27'917.8
2017-Dec-10 18:00N 34°30' E 134°38'918.0
2017-Dec-10 17:30N 34°33' E 134°48'918.9
2017-Dec-10 17:00N 34°37' E 134°58'816.5
2017-Dec-10 16:31N 34°37' E 135°08'510.4
2017-Dec-10 16:00N 34°41' E 135°12'0 0.0
2017-Dec-10 15:31N 34°41' E 135°12'0 0.0
2017-Dec-10 15:01N 34°41' E 135°12'0 0.0
2017-Dec-10 14:30N 34°41' E 135°12'0 0.0
2017-Dec-10 14:01N 34°41' E 135°12'0 0.0
2017-Dec-10 13:30N 34°41' E 135°12'0 0.0
2017-Dec-10 13:00N 34°41' E 135°12'0 0.0
2017-Dec-10 12:31N 34°41' E 135°12'0 0.0
2017-Dec-10 12:01N 34°41' E 135°12'3 5.4
2017-Dec-10 11:31N 34°38' E 135°11'815.5
2017-Dec-10 11:01N 34°36' E 135°02'918.3
2017-Dec-10 10:31N 34°34' E 134°51'918.3
2017-Dec-10 10:01N 34°30' E 134°41'918.2
2017-Dec-10 09:30N 34°27' E 134°31'817.0
2017-Dec-10 09:00N 34°26' E 134°21'2 3.1
2017-Dec-10 08:25N 34°27' E 134°19'716.8
2017-Dec-10 07:59N 34°24' E 134°11'6 4.7
2017-Dec-10 06:43N 34°21' E 134°04'311.2
2017-Dec-10 06:29N 34°24' E 134°06'816.8
2017-Dec-10 06:00N 34°25' E 134°15'4 4.4
2017-Dec-10 05:02N 34°25' E 134°20'016.8
2017-Dec-10 05:00N 34°25' E 134°21'918.3
2017-Dec-10 04:31N 34°28' E 134°32'918.3
2017-Dec-10 04:01N 34°32' E 134°42'1019.7
2017-Dec-10 03:30N 34°35' E 134°53'918.8
2017-Dec-10 03:00N 34°36' E 135°04'714.4
2017-Dec-10 02:31N 34°40' E 135°12'1 1.6
2017-Dec-10 02:00N 34°41' E 135°12'0 0.0
2017-Dec-10 01:31N 34°41' E 135°12'611.1
2017-Dec-10 01:01N 34°36' E 135°08'815.7
2017-Dec-10 00:30N 34°37' E 134°59'918.4
2017-Dec-10 00:00N 34°33' E 134°49'918.0
2017-Dec-09 23:30N 34°29' E 134°39'918.0
2017-Dec-09 23:00N 34°26' E 134°28'815.2
2017-Dec-09 22:30N 34°26' E 134°19'1 1.4
2017-Dec-09 22:00N 34°27' E 134°19'916.9
2017-Dec-09 21:29N 34°24' E 134°09'5 3.0
2017-Dec-09 19:57N 34°21' E 134°04'5 9.9
2017-Dec-09 19:29N 34°24' E 134°09'816.5
2017-Dec-09 19:00N 34°25' E 134°18'817.3
2017-Dec-09 18:30N 34°27' E 134°28'917.6
2017-Dec-09 18:00N 34°31' E 134°38'917.8
2017-Dec-09 17:30N 34°34' E 134°48'918.5
2017-Dec-09 17:01N 34°37' E 134°58'816.5
2017-Dec-09 16:31N 34°37' E 135°08'510.2
2017-Dec-09 16:00N 34°41' E 135°12'0 0.0
2017-Dec-09 15:30N 34°41' E 135°12'0 0.0
2017-Dec-09 15:00N 34°41' E 135°12'0 0.0
2017-Dec-09 14:30N 34°41' E 135°12'0 0.0
2017-Dec-09 14:00N 34°41' E 135°12'0 0.0
2017-Dec-09 13:30N 34°41' E 135°12'0 0.0
2017-Dec-09 13:00N 34°41' E 135°12'0 0.0
2017-Dec-09 12:30N 34°41' E 135°12'0 0.0
2017-Dec-09 12:00N 34°41' E 135°12'2 4.2
2017-Dec-09 11:30N 34°39' E 135°11'815.2
2017-Dec-09 11:00N 34°36' E 135°03'918.4
2017-Dec-09 10:30N 34°34' E 134°52'918.6
2017-Dec-09 10:00N 34°31' E 134°41'918.3
2017-Dec-09 09:30N 34°27' E 134°31'917.4
2017-Dec-09 09:00N 34°25' E 134°21'2 3.4
2017-Dec-09 08:25N 34°27' E 134°19'717.4
2017-Dec-09 08:00N 34°24' E 134°10'5 4.3
2017-Dec-09 06:44N 34°22' E 134°04'413.9
2017-Dec-09 06:28N 34°24' E 134°08'715.3
2017-Dec-09 06:01N 34°26' E 134°17'3 3.6
2017-Dec-09 05:18N 34°26' E 134°20'517.0
2017-Dec-09 05:00N 34°26' E 134°26'917.8
2017-Dec-09 04:30N 34°30' E 134°36'918.1
2017-Dec-09 04:00N 34°33' E 134°46'1019.9
2017-Dec-09 03:30N 34°37' E 134°57'917.3
2017-Dec-09 03:00N 34°37' E 135°08'510.8
2017-Dec-09 02:30N 34°41' E 135°12'0 0.1
2017-Dec-09 02:00N 34°41' E 135°12'0 0.2
2017-Dec-09 01:30N 34°41' E 135°12'713.6
2017-Dec-09 01:00N 34°36' E 135°07'714.9
2017-Dec-09 00:30N 34°36' E 134°58'917.8
2017-Dec-09 00:00N 34°32' E 134°48'918.1
2017-Dec-08 23:30N 34°29' E 134°38'918.1
2017-Dec-08 23:00N 34°27' E 134°27'7 7.4
2017-Dec-08 22:05N 34°27' E 134°19'113.9
2017-Dec-08 22:00N 34°26' E 134°18'916.4
2017-Dec-08 21:28N 34°24' E 134°07'4 2.7
2017-Dec-08 20:08N 34°21' E 134°04'1 7.3
2017-Dec-08 20:00N 34°22' E 134°04'1014.6
2017-Dec-08 19:19N 34°24' E 134°17'516.7
2017-Dec-08 19:00N 34°26' E 134°23'817.4
2017-Dec-08 18:31N 34°29' E 134°32'917.3
2017-Dec-08 18:00N 34°32' E 134°42'917.8
2017-Dec-08 17:30N 34°35' E 134°52'816.9
2017-Dec-08 17:00N 34°37' E 135°02'714.4
2017-Dec-08 16:30N 34°38' E 135°11'3 5.9
2017-Dec-08 16:01N 34°41' E 135°12'0 0.0
2017-Dec-08 15:30N 34°41' E 135°12'0 0.1
2017-Dec-08 15:01N 34°41' E 135°12'612.5
2017-Dec-08 14:31N 34°36' E 135°08'815.0
2017-Dec-08 14:01N 34°37' E 134°59'816.6
2017-Dec-08 13:31N 34°33' E 134°50'816.9
2017-Dec-08 13:00N 34°30' E 134°40'917.1
2017-Dec-08 12:30N 34°27' E 134°30'816.0
2017-Dec-08 12:00N 34°26' E 134°21'2 3.3
2017-Dec-08 11:23N 34°26' E 134°18'716.2
2017-Dec-08 10:59N 34°24' E 134°11'6 3.6
2017-Dec-08 09:17N 34°21' E 134°04'310.2
2017-Dec-08 09:01N 34°24' E 134°06'814.4
2017-Dec-08 08:28N 34°25' E 134°15'4 4.9
2017-Dec-08 07:35N 34°26' E 134°21'116.0
2017-Dec-08 07:30N 34°26' E 134°22'816.6
2017-Dec-08 07:01N 34°29' E 134°31'816.4
2017-Dec-08 06:31N 34°32' E 134°41'917.2
2017-Dec-08 06:01N 34°35' E 134°50'917.3
2017-Dec-08 05:31N 34°38' E 135°00'714.5
2017-Dec-08 05:01N 34°38' E 135°09'4 7.9
2017-Dec-08 04:30N 34°41' E 135°12'0 0.0
2017-Dec-08 04:00N 34°41' E 135°12'0 0.0
2017-Dec-08 03:30N 34°41' E 135°12'0 0.0
2017-Dec-08 03:00N 34°41' E 135°12'0 0.0
2017-Dec-08 02:30N 34°41' E 135°12'2 4.2
2017-Dec-08 02:00N 34°39' E 135°11'612.8
2017-Dec-08 01:31N 34°35' E 135°05'713.0
2017-Dec-08 01:00N 34°36' E 134°58'815.5
2017-Dec-08 00:31N 34°33' E 134°49'917.3
2017-Dec-08 00:01N 34°30' E 134°39'917.8
2017-Dec-07 23:30N 34°27' E 134°29'815.9
2017-Dec-07 23:00N 34°26' E 134°19'1 1.7
2017-Dec-07 22:27N 34°26' E 134°18'1016.2
2017-Dec-07 21:49N 34°24' E 134°06'3 2.4
2017-Dec-07 20:34N 34°21' E 134°04'0 1.9
2017-Dec-07 20:30N 34°21' E 134°04'912.6
2017-Dec-07 19:50N 34°24' E 134°14'616.2
2017-Dec-07 19:26N 34°25' E 134°22'716.9
2017-Dec-07 19:00N 34°28' E 134°30'816.9
2017-Dec-07 18:30N 34°31' E 134°39'816.7
2017-Dec-07 18:00N 34°34' E 134°49'816.0
2017-Dec-07 17:30N 34°37' E 134°58'714.9
2017-Dec-07 17:00N 34°36' E 135°07'612.6
2017-Dec-07 16:30N 34°41' E 135°12'0 0.5
2017-Dec-07 16:00N 34°41' E 135°12'0 0.0
2017-Dec-07 15:30N 34°41' E 135°12'0 0.1
2017-Dec-07 15:00N 34°41' E 135°12'613.0
2017-Dec-07 14:30N 34°36' E 135°07'612.2
2017-Dec-07 14:00N 34°37' E 134°60'815.4
2017-Dec-07 13:30N 34°34' E 134°51'816.9
2017-Dec-07 13:00N 34°30' E 134°42'917.5
2017-Dec-07 12:30N 34°27' E 134°32'816.9
2017-Dec-07 12:00N 34°25' E 134°22'3 4.7
2017-Dec-07 11:18N 34°27' E 134°19'516.0
2017-Dec-07 11:00N 34°24' E 134°14'8 4.4
2017-Dec-07 09:04N 34°21' E 134°04'2 9.0
2017-Dec-07 08:51N 34°23' E 134°05'715.7
2017-Dec-07 08:26N 34°24' E 134°13'6 6.4
2017-Dec-07 07:30N 34°26' E 134°20'816.7
2017-Dec-07 07:00N 34°28' E 134°30'917.3
2017-Dec-07 06:30N 34°31' E 134°39'917.6
2017-Dec-07 06:01N 34°34' E 134°49'917.1
2017-Dec-07 05:30N 34°38' E 134°59'815.5
2017-Dec-07 05:00N 34°37' E 135°09'5 9.5
2017-Dec-07 04:30N 34°41' E 135°12'0 0.0
2017-Dec-07 04:00N 34°41' E 135°12'0 0.0
2017-Dec-07 03:31N 34°41' E 135°12'0 0.0
2017-Dec-07 03:00N 34°41' E 135°12'0 0.0
2017-Dec-07 02:30N 34°41' E 135°12'4 7.2
2017-Dec-07 02:00N 34°38' E 135°10'713.7
2017-Dec-07 01:30N 34°36' E 135°02'713.2
2017-Dec-07 01:00N 34°36' E 134°54'714.7
2017-Dec-07 00:31N 34°32' E 134°46'816.5
2017-Dec-07 00:00N 34°29' E 134°37'817.0
2017-Dec-06 23:30N 34°26' E 134°27'7 7.6
2017-Dec-06 22:34N 34°27' E 134°19'111.9
2017-Dec-06 22:30N 34°26' E 134°18'815.8
2017-Dec-06 21:59N 34°24' E 134°08'  
2017-Dec-04 09:05N 34°21' E 134°04'1 6.4
2017-Dec-04 08:56N 34°22' E 134°04'916.4
2017-Dec-04 08:22N 34°25' E 134°15'5 6.6
2017-Dec-04 07:34N 34°26' E 134°21'117.0
2017-Dec-04 07:30N 34°26' E 134°23'917.6
2017-Dec-04 07:00N 34°29' E 134°33'917.4
2017-Dec-04 06:30N 34°32' E 134°42'816.8
2017-Dec-04 06:00N 34°35' E 134°52'715.0
2017-Dec-04 05:30N 34°37' E 135°01'713.1
2017-Dec-04 05:01N 34°37' E 135°08'510.3
2017-Dec-04 04:30N 34°41' E 135°12'0 0.0
2017-Dec-04 04:00N 34°41' E 135°12'0 0.0
2017-Dec-04 03:30N 34°41' E 135°12'0 0.0
2017-Dec-04 03:00N 34°41' E 135°12'0 0.0
2017-Dec-04 02:30N 34°41' E 135°12'0 0.0
2017-Dec-04 02:00N 34°41' E 135°12'611.6
2017-Dec-04 01:30N 34°36' E 135°08'714.7
2017-Dec-04 01:00N 34°37' E 134°60'816.1
2017-Dec-04 00:30N 34°34' E 134°51'815.8
2017-Dec-04 00:00N 34°30' E 134°42'917.3
2017-Dec-03 23:30N 34°27' E 134°32'816.7
2017-Dec-03 23:01N 34°25' E 134°23'3 5.6
2017-Dec-03 22:25N 34°27' E 134°19'513.0
2017-Dec-03 22:00N 34°25' E 134°13'713.7
2017-Dec-03 21:28N 34°23' E 134°05'2 1.3
2017-Dec-03 20:07N 34°21' E 134°04'0 3.0
2017-Dec-03 19:59N 34°22' E 134°04'815.5
2017-Dec-03 19:30N 34°24' E 134°13'917.3
2017-Dec-03 19:00N 34°26' E 134°23'917.9
2017-Dec-03 18:30N 34°29' E 134°33'917.6
2017-Dec-03 18:00N 34°32' E 134°43'816.3
2017-Dec-03 17:30N 34°35' E 134°52'714.5
2017-Dec-03 17:00N 34°37' E 135°01'613.0
2017-Dec-03 16:30N 34°37' E 135°09'5 9.5
2017-Dec-03 16:00N 34°41' E 135°12'0 0.0
2017-Dec-03 15:30N 34°41' E 135°12'0 0.0
2017-Dec-03 15:01N 34°41' E 135°12'0 0.0
2017-Dec-03 14:30N 34°41' E 135°12'0 0.0
2017-Dec-03 14:00N 34°41' E 135°12'0 0.0
2017-Dec-03 13:30N 34°41' E 135°12'0 0.0
2017-Dec-03 13:00N 34°41' E 135°12'0 0.0
2017-Dec-03 12:31N 34°41' E 135°12'3 6.0
2017-Dec-03 12:00N 34°38' E 135°11'714.6
2017-Dec-03 11:30N 34°36' E 135°02'714.9
2017-Dec-03 11:00N 34°35' E 134°53'816.0
2017-Dec-03 10:30N 34°31' E 134°45'917.2
2017-Dec-03 10:00N 34°28' E 134°35'917.5
2017-Dec-03 09:30N 34°26' E 134°25'5 6.1
2017-Dec-03 08:41N 34°27' E 134°19'315.6
2017-Dec-03 08:30N 34°25' E 134°16'815.1
2017-Dec-03 08:00N 34°24' E 134°07'3 3.9
2017-Dec-03 07:08N 34°21' E 134°04'2 9.8
2017-Dec-03 06:58N 34°23' E 134°05'816.0
2017-Dec-03 06:26N 34°25' E 134°15'4 5.5
2017-Dec-03 05:42N 34°26' E 134°20'316.9
2017-Dec-03 05:30N 34°27' E 134°24'917.8
2017-Dec-03 05:00N 34°30' E 134°34'917.6
2017-Dec-03 04:30N 34°33' E 134°44'816.5
2017-Dec-03 04:00N 34°36' E 134°53'713.8
2017-Dec-03 03:30N 34°37' E 135°02'612.8
2017-Dec-03 03:01N 34°38' E 135°09'4 7.9
2017-Dec-03 02:30N 34°41' E 135°12'0 0.0
2017-Dec-03 02:00N 34°41' E 135°12'510.8
2017-Dec-03 01:31N 34°36' E 135°08'714.3
2017-Dec-03 01:01N 34°37' E 134°60'816.5
2017-Dec-03 00:30N 34°34' E 134°51'816.0
2017-Dec-03 00:00N 34°31' E 134°42'917.1
2017-Dec-02 23:30N 34°28' E 134°32'816.2
2017-Dec-02 23:00N 34°25' E 134°23'3 4.7
2017-Dec-02 22:18N 34°27' E 134°19'415.1
2017-Dec-02 22:01N 34°24' E 134°15'714.0
2017-Dec-02 21:30N 34°24' E 134°06'3 1.9
2017-Dec-02 20:05N 34°21' E 134°04'0 1.3
2017-Dec-02 20:00N 34°21' E 134°04'713.7
2017-Dec-02 19:30N 34°24' E 134°12'917.6
2017-Dec-02 19:00N 34°26' E 134°22'918.0
2017-Dec-02 18:30N 34°29' E 134°32'917.7
2017-Dec-02 18:00N 34°32' E 134°42'816.7
2017-Dec-02 17:30N 34°35' E 134°52'815.6
2017-Dec-02 17:00N 34°38' E 135°01'612.7
2017-Dec-02 16:30N 34°37' E 135°09'5 9.6
2017-Dec-02 16:00N 34°41' E 135°12'0 0.0
2017-Dec-02 15:31N 34°41' E 135°12'0 0.0
2017-Dec-02 15:00N 34°41' E 135°12'0 0.0
2017-Dec-02 14:31N 34°41' E 135°12'0 0.0
2017-Dec-02 14:01N 34°41' E 135°12'0 0.0
2017-Dec-02 13:31N 34°41' E 135°12'0 0.0
2017-Dec-02 13:00N 34°41' E 135°12'0 0.0
2017-Dec-02 12:31N 34°41' E 135°12'713.1
2017-Dec-02 12:01N 34°36' E 135°07'714.8
2017-Dec-02 11:31N 34°37' E 134°58'816.2
2017-Dec-02 11:01N 34°33' E 134°49'816.8
2017-Dec-02 10:31N 34°30' E 134°39'917.2
2017-Dec-02 10:01N 34°27' E 134°30'815.9
2017-Dec-02 09:31N 34°26' E 134°20'2 2.9
2017-Dec-02 08:58N 34°27' E 134°19'714.9
2017-Dec-02 08:30N 34°24' E 134°11'6 4.8
2017-Dec-02 07:13N 34°21' E 134°04'3 9.7
2017-Dec-02 06:56N 34°24' E 134°06'817.5
2017-Dec-02 06:30N 34°25' E 134°15'4 5.4
2017-Dec-02 05:45N 34°26' E 134°20'417.0
2017-Dec-02 05:30N 34°27' E 134°25'917.8
2017-Dec-02 05:00N 34°30' E 134°35'917.3
2017-Dec-02 04:31N 34°33' E 134°45'816.3
2017-Dec-02 04:00N 34°36' E 134°54'714.0
2017-Dec-02 03:30N 34°37' E 135°02'713.6
2017-Dec-02 03:00N 34°38' E 135°10'3 6.3
2017-Dec-02 02:31N 34°41' E 135°12'0 0.0
2017-Dec-02 02:01N 34°41' E 135°12'4 8.6
2017-Dec-02 01:30N 34°37' E 135°10'815.1
2017-Dec-02 01:00N 34°37' E 135°00'917.3
2017-Dec-02 00:30N 34°34' E 134°51'816.6
2017-Dec-02 00:00N 34°30' E 134°42'917.4
2017-Dec-01 23:30N 34°27' E 134°32'816.6
2017-Dec-01 23:00N 34°25' E 134°22'3 4.1
2017-Dec-01 22:19N 34°27' E 134°19'515.5
2017-Dec-01 22:00N 34°25' E 134°14'714.0
2017-Dec-01 21:29N 34°23' E 134°05'2 1.4
2017-Dec-01 20:10N 34°21' E 134°04'310.8
2017-Dec-01 19:56N 34°24' E 134°06'818.6
2017-Dec-01 19:30N 34°24' E 134°15'917.6
2017-Dec-01 19:00N 34°27' E 134°25'917.5
2017-Dec-01 18:31N 34°30' E 134°35'917.1
2017-Dec-01 18:01N 34°33' E 134°45'816.6
2017-Dec-01 17:31N 34°36' E 134°54'714.0
2017-Dec-01 17:00N 34°36' E 135°03'  

Dump ship's entire track history